createdAt,value
2018-10-18T00:01:17.086Z,20.90
2018-10-18T00:03:47.103Z,21.40
2018-10-18T00:06:17.126Z,20.67
2018-10-18T00:08:53.704Z,20.77
2018-10-18T00:11:23.685Z,19.73
2018-10-18T00:13:53.709Z,34.80
2018-10-18T00:16:23.673Z,26.43
2018-10-18T00:18:53.637Z,21.93
2018-10-18T00:21:23.577Z,23.07
2018-10-18T00:23:53.545Z,23.60
2018-10-18T00:26:23.484Z,23.57
2018-10-18T00:28:53.520Z,23.60
2018-10-18T00:31:23.443Z,20.50
2018-10-18T00:33:53.457Z,22.17
2018-10-18T00:36:23.376Z,22.67
2018-10-18T00:38:53.310Z,20.80
2018-10-18T00:41:23.411Z,21.80
2018-10-18T00:43:53.474Z,23.60
2018-10-18T00:46:23.411Z,22.90
2018-10-18T00:48:53.384Z,24.60
2018-10-18T00:51:23.361Z,22.73
2018-10-18T00:53:53.317Z,24.67
2018-10-18T00:56:23.279Z,23.50
2018-10-18T00:58:53.311Z,24.87
2018-10-18T01:01:23.374Z,22.93
2018-10-18T01:03:53.303Z,26.57
2018-10-18T01:06:23.315Z,25.23
2018-10-18T01:08:53.255Z,24.90
2018-10-18T01:11:23.212Z,26.07
2018-10-18T01:13:53.127Z,28.33
2018-10-18T01:16:23.062Z,25.93
2018-10-18T01:18:53.103Z,26.67
2018-10-18T01:21:23.112Z,24.53
2018-10-18T01:23:53.204Z,26.80
2018-10-18T01:26:23.139Z,25.10
2018-10-18T01:28:53.160Z,27.17
2018-10-18T01:31:23.151Z,26.20
2018-10-18T01:33:53.131Z,28.23
2018-10-18T01:36:23.077Z,26.07
2018-10-18T01:38:53.174Z,24.97
2018-10-18T01:41:23.133Z,27.43
2018-10-18T01:43:53.178Z,24.77
2018-10-18T01:46:23.169Z,25.30
2018-10-18T01:48:53.141Z,23.70
2018-10-18T01:51:23.074Z,26.40
2018-10-18T01:53:53.143Z,27.43
2018-10-18T01:56:23.063Z,26.27
2018-10-18T01:58:53.019Z,26.70
2018-10-18T02:01:23.039Z,29.50
2018-10-18T02:03:52.988Z,27.90
2018-10-18T02:06:23.074Z,26.60
2018-10-18T02:08:53.014Z,25.33
2018-10-18T02:11:22.961Z,25.20
2018-10-18T02:13:53.007Z,27.30
2018-10-18T02:16:22.950Z,24.53
2018-10-18T02:18:52.885Z,25.70
2018-10-18T02:21:22.931Z,25.43
2018-10-18T02:23:52.878Z,24.13
2018-10-18T02:26:22.882Z,24.87
2018-10-18T02:28:52.868Z,23.40
2018-10-18T02:31:22.923Z,28.90
2018-10-18T02:33:52.911Z,24.90
2018-10-18T02:36:22.896Z,23.87
2018-10-18T02:38:52.817Z,28.63
2018-10-18T02:41:22.814Z,26.60
2018-10-18T02:43:52.711Z,23.10
2018-10-18T02:46:22.688Z,25.10
2018-10-18T02:48:52.691Z,23.93
2018-10-18T02:51:23.356Z,23.10
2018-10-18T02:53:53.312Z,22.30
2018-10-18T02:56:23.363Z,24.10
2018-10-18T02:58:53.375Z,23.57
2018-10-18T03:01:23.323Z,25.13
2018-10-18T03:03:53.247Z,24.30
2018-10-18T03:06:23.263Z,24.47
2018-10-18T03:08:53.176Z,28.03
2018-10-18T03:11:23.195Z,22.87
2018-10-18T03:13:53.115Z,25.13
2018-10-18T03:16:23.029Z,23.37
2018-10-18T03:18:53.072Z,21.90
2018-10-18T03:21:22.992Z,21.77
2018-10-18T03:23:52.924Z,22.00
2018-10-18T03:26:22.912Z,22.67
2018-10-18T03:28:52.907Z,23.37
2018-10-18T03:31:22.904Z,22.50
2018-10-18T03:33:52.819Z,27.03
2018-10-18T03:36:22.897Z,24.90
2018-10-18T03:38:52.826Z,24.17
2018-10-18T03:41:22.875Z,22.77
2018-10-18T03:43:52.817Z,23.07
2018-10-18T03:46:23.618Z,21.30
2018-10-18T03:48:53.523Z,20.93
2018-10-18T03:51:23.470Z,22.47
2018-10-18T03:53:53.422Z,23.00
2018-10-18T03:56:23.404Z,23.40
2018-10-18T03:58:53.344Z,21.30
2018-10-18T04:01:23.307Z,22.00
2018-10-18T04:03:53.219Z,22.07
2018-10-18T04:06:23.097Z,22.63
2018-10-18T04:08:53.063Z,22.53
2018-10-18T04:11:22.986Z,22.40
2018-10-18T04:13:52.912Z,21.70
2018-10-18T04:16:22.893Z,23.47
2018-10-18T04:18:52.844Z,22.33
2018-10-18T04:21:22.849Z,21.00
2018-10-18T04:23:52.841Z,19.60
2018-10-18T04:26:22.807Z,21.27
2018-10-18T04:28:52.766Z,23.27
2018-10-18T04:31:22.681Z,22.17
2018-10-18T04:33:52.885Z,22.10
2018-10-18T04:36:22.817Z,21.40
2018-10-18T04:38:52.945Z,21.00
2018-10-18T04:41:22.910Z,22.63
2018-10-18T04:43:52.875Z,22.20
2018-10-18T04:46:22.897Z,22.43
2018-10-18T04:48:53.001Z,24.20
2018-10-18T04:51:22.855Z,23.40
2018-10-18T04:53:52.854Z,21.40
2018-10-18T04:56:22.899Z,25.67
2018-10-18T04:58:52.827Z,23.70
2018-10-18T05:01:22.909Z,25.63
2018-10-18T05:03:52.799Z,21.97
2018-10-18T05:06:22.784Z,21.83
2018-10-18T05:08:52.710Z,21.07
2018-10-18T05:11:22.735Z,21.20
2018-10-18T05:13:52.622Z,24.70
2018-10-18T05:16:22.641Z,20.53
2018-10-18T05:18:52.566Z,20.90
2018-10-18T05:21:22.519Z,22.03
2018-10-18T05:23:52.548Z,22.30
2018-10-18T05:26:22.536Z,22.10
2018-10-18T05:28:52.524Z,20.80
2018-10-18T05:31:22.458Z,21.93
2018-10-18T05:33:52.526Z,22.77
2018-10-18T05:36:22.496Z,21.63
2018-10-18T05:38:52.518Z,21.87
2018-10-18T05:41:22.466Z,22.87
2018-10-18T05:43:52.425Z,22.30
2018-10-18T05:46:22.470Z,22.20
2018-10-18T05:48:52.462Z,21.47
2018-10-18T05:51:22.532Z,21.50
2018-10-18T05:53:52.872Z,21.87
2018-10-18T05:56:23.288Z,23.07
2018-10-18T05:58:53.850Z,21.93
2018-10-18T06:01:24.159Z,25.00
2018-10-18T06:03:54.658Z,25.60
2018-10-18T06:06:24.992Z,25.30
2018-10-18T06:08:55.456Z,23.00
2018-10-18T06:11:29.055Z,21.77
2018-10-18T06:13:59.504Z,23.60
2018-10-18T06:16:29.643Z,22.30
2018-10-18T06:19:00.223Z,21.70
2018-10-18T06:21:30.598Z,23.50
2018-10-18T06:24:01.027Z,20.27
2018-10-18T06:26:31.332Z,20.63
2018-10-18T06:29:01.389Z,22.10
2018-10-18T06:31:31.824Z,20.60
2018-10-18T06:34:03.288Z,19.93
2018-10-18T06:36:33.299Z,20.80
2018-10-18T06:39:03.553Z,22.20
2018-10-18T06:41:33.854Z,20.07
2018-10-18T06:44:03.928Z,20.83
2018-10-18T06:46:33.886Z,21.23
2018-10-18T06:49:04.151Z,21.13
2018-10-18T06:51:34.571Z,19.50
2018-10-18T06:54:04.902Z,20.00
2018-10-18T06:56:35.119Z,20.27
2018-10-18T06:59:05.567Z,19.27
2018-10-18T07:01:36.048Z,20.00
2018-10-18T07:04:06.628Z,19.00
2018-10-18T07:06:37.105Z,19.80
2018-10-18T07:09:11.259Z,21.40
2018-10-18T07:11:41.643Z,19.30
2018-10-18T07:14:12.028Z,19.17
2018-10-18T07:16:42.440Z,21.97
2018-10-18T07:19:12.830Z,21.20
2018-10-18T07:21:43.036Z,21.23
2018-10-18T07:24:13.557Z,21.90
2018-10-18T07:26:43.986Z,19.70
2018-10-18T07:29:14.032Z,21.30
2018-10-18T07:31:43.973Z,20.00
2018-10-18T07:34:14.019Z,20.47
2018-10-18T07:36:43.976Z,20.10
2018-10-18T07:39:15.431Z,19.70
2018-10-18T07:41:45.443Z,20.10
2018-10-18T07:44:16.546Z,19.20
2018-10-18T07:46:47.579Z,20.20
2018-10-18T07:49:18.381Z,19.80
2018-10-18T07:51:49.004Z,19.53
2018-10-18T07:54:19.297Z,20.37
2018-10-18T07:56:49.663Z,19.87
2018-10-18T07:59:20.094Z,20.23
2018-10-18T08:01:50.400Z,19.40
2018-10-18T08:04:20.879Z,18.70
2018-10-18T08:06:51.107Z,20.40
2018-10-18T08:09:21.705Z,20.83
2018-10-18T08:11:52.112Z,19.10
2018-10-18T08:14:22.666Z,21.03
2018-10-18T08:16:53.138Z,19.00
2018-10-18T08:19:23.316Z,19.23
2018-10-18T08:21:53.681Z,19.53
2018-10-18T08:24:24.292Z,20.80
2018-10-18T08:26:54.513Z,19.67
2018-10-18T08:29:24.931Z,20.00
2018-10-18T08:31:55.335Z,18.33
2018-10-18T08:34:25.527Z,20.00
2018-10-18T08:36:55.861Z,20.67
2018-10-18T08:39:25.903Z,21.00
2018-10-18T08:41:55.855Z,18.63
2018-10-18T08:44:26.184Z,17.27
2018-10-18T08:46:56.065Z,19.33
2018-10-18T08:49:26.046Z,19.80
2018-10-18T08:51:55.969Z,20.20
2018-10-18T08:54:25.904Z,19.23
2018-10-18T08:56:55.874Z,20.03
2018-10-18T08:59:25.917Z,19.33
2018-10-18T09:01:55.759Z,18.97
2018-10-18T09:04:25.731Z,18.73
2018-10-18T09:06:55.671Z,18.90
2018-10-18T09:09:25.648Z,19.13
2018-10-18T09:11:55.590Z,21.90
2018-10-18T09:14:25.751Z,22.30
2018-10-18T09:16:55.690Z,20.03
2018-10-18T09:19:25.670Z,21.20
2018-10-18T09:21:55.693Z,19.20
2018-10-18T09:24:25.639Z,18.50
2018-10-18T09:26:55.954Z,21.37
2018-10-18T09:29:26.484Z,22.20
2018-10-18T09:31:56.884Z,22.80
2018-10-18T09:34:27.335Z,22.17
2018-10-18T09:36:57.709Z,23.70
2018-10-18T09:39:28.157Z,23.63
2018-10-18T09:41:58.568Z,25.47
2018-10-18T09:44:28.972Z,31.87
2018-10-18T09:46:59.292Z,26.23
2018-10-18T09:49:29.761Z,25.27
2018-10-18T09:52:00.145Z,24.63
2018-10-18T09:54:30.649Z,24.17
2018-10-18T09:57:01.135Z,24.83
2018-10-18T09:59:31.520Z,25.50
2018-10-18T10:02:07.521Z,27.53
2018-10-18T10:04:37.955Z,26.50
2018-10-18T10:07:08.499Z,26.77
2018-10-18T10:09:39.730Z,27.23
2018-10-18T10:12:10.152Z,27.50
2018-10-18T10:14:40.614Z,28.50
2018-10-18T10:17:10.891Z,26.43
2018-10-18T10:19:41.352Z,25.93
2018-10-18T10:22:11.748Z,28.17
2018-10-18T10:24:42.062Z,29.77
2018-10-18T10:27:12.476Z,31.40
2018-10-18T10:29:42.983Z,28.97
2018-10-18T10:32:13.561Z,27.03
2018-10-18T10:34:43.826Z,27.93
2018-10-18T10:37:14.244Z,25.80
2018-10-18T10:39:44.581Z,27.90
2018-10-18T10:42:15.303Z,27.90
2018-10-18T10:44:45.667Z,28.27
2018-10-18T10:47:15.665Z,26.77
2018-10-18T10:49:45.601Z,29.80
2018-10-18T10:52:15.662Z,29.97
2018-10-18T10:54:46.102Z,29.50
2018-10-18T10:57:16.431Z,30.97
2018-10-18T10:59:46.347Z,30.30
2018-10-18T11:02:16.416Z,30.00
2018-10-18T11:04:46.330Z,31.70
2018-10-18T11:07:16.337Z,29.97
2018-10-18T11:09:46.801Z,28.57
2018-10-18T11:12:17.199Z,29.93
2018-10-18T11:14:47.626Z,29.30
2018-10-18T11:17:17.939Z,29.87
2018-10-18T11:19:48.281Z,31.63
2018-10-18T11:22:18.645Z,30.80
2018-10-18T11:24:50.063Z,30.27
2018-10-18T11:27:20.711Z,29.77
2018-10-18T11:29:51.692Z,32.70
2018-10-18T11:32:22.948Z,33.10
2018-10-18T11:34:53.285Z,31.27
2018-10-18T11:37:23.769Z,33.00
2018-10-18T11:39:55.119Z,30.53
2018-10-18T11:42:25.725Z,33.40
2018-10-18T11:44:56.015Z,36.63
2018-10-18T11:47:27.377Z,31.70
2018-10-18T11:49:57.582Z,31.20
2018-10-18T11:52:27.912Z,32.07
2018-10-18T11:54:59.676Z,31.63
2018-10-18T11:57:30.590Z,32.70
2018-10-18T12:00:00.571Z,31.37
2018-10-18T12:02:30.695Z,30.67
2018-10-18T12:05:00.710Z,30.03
2018-10-18T12:07:30.703Z,31.03
2018-10-18T12:10:00.669Z,32.10
2018-10-18T12:12:30.636Z,34.20
2018-10-18T12:15:00.607Z,33.27
2018-10-18T12:17:30.644Z,32.30
2018-10-18T12:20:00.607Z,33.97
2018-10-18T12:22:30.555Z,32.13
2018-10-18T12:25:00.470Z,31.00
2018-10-18T12:27:30.587Z,31.80
2018-10-18T12:30:00.555Z,28.77
2018-10-18T12:32:30.550Z,32.20
2018-10-18T12:35:00.552Z,31.20
2018-10-18T12:37:30.662Z,33.23
2018-10-18T12:40:00.986Z,32.37
2018-10-18T12:42:31.342Z,32.97
2018-10-18T12:45:01.281Z,30.70
2018-10-18T12:47:31.307Z,32.17
2018-10-18T12:50:01.292Z,31.83
2018-10-18T12:52:31.237Z,33.73
2018-10-18T12:55:01.338Z,31.37
2018-10-18T12:57:31.409Z,35.10
2018-10-18T13:00:01.458Z,29.27
2018-10-18T13:02:31.516Z,31.70
2018-10-18T13:05:01.549Z,30.33
2018-10-18T13:07:31.523Z,31.80
2018-10-18T13:10:01.460Z,31.70
2018-10-18T13:12:31.984Z,31.17
2018-10-18T13:15:02.228Z,31.03
2018-10-18T13:17:32.568Z,30.17
2018-10-18T13:20:02.532Z,27.67
2018-10-18T13:22:32.414Z,29.70
2018-10-18T13:25:02.410Z,29.80
2018-10-18T13:27:32.389Z,32.43
2018-10-18T13:30:02.440Z,32.87
2018-10-18T13:32:32.341Z,32.97
2018-10-18T13:35:02.378Z,30.37
2018-10-18T13:37:32.775Z,30.90
2018-10-18T13:40:03.577Z,32.60
2018-10-18T13:42:33.907Z,32.70
2018-10-18T13:45:04.745Z,31.37
2018-10-18T13:47:35.307Z,29.03
2018-10-18T13:50:06.121Z,32.50
2018-10-18T13:52:36.867Z,32.10
2018-10-18T13:55:08.310Z,30.67
2018-10-18T13:57:38.726Z,30.63
2018-10-18T14:00:30.805Z,33.40
2018-10-18T14:03:01.280Z,32.43
2018-10-18T14:05:31.818Z,34.07
2018-10-18T14:08:02.129Z,30.97
2018-10-18T14:10:32.513Z,32.97
2018-10-18T14:13:03.115Z,30.47
2018-10-18T14:15:33.596Z,32.63
2018-10-18T14:18:03.913Z,32.90
2018-10-18T14:20:34.600Z,31.80
2018-10-18T14:23:05.699Z,35.83
2018-10-18T14:25:36.027Z,30.23
2018-10-18T14:28:06.636Z,32.73
2018-10-18T14:30:36.996Z,31.70
2018-10-18T14:33:07.036Z,33.60
2018-10-18T14:35:36.999Z,33.40
2018-10-18T14:38:07.050Z,32.00
2018-10-18T14:40:36.981Z,30.67
2018-10-18T14:43:07.274Z,33.30
2018-10-18T14:45:37.242Z,32.40
2018-10-18T14:48:07.356Z,32.23
2018-10-18T14:50:37.496Z,33.33
2018-10-18T14:53:07.580Z,31.53
2018-10-18T14:55:37.475Z,30.73
2018-10-18T14:58:07.627Z,32.33
2018-10-18T15:00:38.551Z,33.67
2018-10-18T15:03:08.594Z,31.40
2018-10-18T15:05:38.584Z,34.07
2018-10-18T15:08:08.592Z,36.17
2018-10-18T15:10:38.533Z,31.17
2018-10-18T15:13:08.498Z,31.37
2018-10-18T15:15:38.538Z,31.27
2018-10-18T15:18:08.455Z,32.33
2018-10-18T15:20:38.456Z,32.40
2018-10-18T15:23:08.468Z,32.03
2018-10-18T15:25:38.526Z,33.67
2018-10-18T15:28:08.404Z,33.63
2018-10-18T15:30:39.225Z,35.03
2018-10-18T15:33:09.219Z,30.90
2018-10-18T15:35:39.215Z,34.07
2018-10-18T15:38:09.281Z,32.90
2018-10-18T15:40:39.449Z,34.13
2018-10-18T15:43:09.434Z,34.47
2018-10-18T15:45:39.420Z,34.83
2018-10-18T15:48:09.487Z,35.33
2018-10-18T15:50:39.482Z,35.97
2018-10-18T15:53:09.559Z,33.43
2018-10-18T15:55:39.437Z,35.77
2018-10-18T15:58:09.439Z,33.00
2018-10-18T16:00:39.374Z,36.33
2018-10-18T16:03:09.433Z,33.80
2018-10-18T16:05:39.325Z,33.57
2018-10-18T16:08:09.494Z,34.43
2018-10-18T16:10:39.875Z,35.10
2018-10-18T16:13:10.381Z,32.90
2018-10-18T16:15:40.939Z,33.77
2018-10-18T16:18:11.267Z,35.20
2018-10-18T16:20:41.672Z,33.50
2018-10-18T16:23:12.351Z,34.87
2018-10-18T16:25:42.552Z,34.50
2018-10-18T16:28:13.104Z,35.13
2018-10-18T16:30:43.458Z,34.53
2018-10-18T16:33:13.815Z,35.97
2018-10-18T16:35:44.246Z,35.80
2018-10-18T16:38:14.768Z,35.47
2018-10-18T16:40:44.968Z,38.07
2018-10-18T16:43:15.448Z,39.03
2018-10-18T16:45:45.779Z,38.00
2018-10-18T16:48:16.635Z,35.67
2018-10-18T16:50:47.065Z,35.20
2018-10-18T16:53:17.484Z,37.40
2018-10-18T16:55:47.790Z,35.50
2018-10-18T16:58:18.323Z,37.40
2018-10-18T17:00:48.712Z,40.17
2018-10-18T17:03:19.262Z,42.00
2018-10-18T17:05:49.635Z,44.27
2018-10-18T17:08:20.088Z,38.17
2018-10-18T17:10:50.343Z,37.07
2018-10-18T17:13:20.913Z,39.83
2018-10-18T17:15:51.055Z,37.33
2018-10-18T17:18:21.463Z,38.70
2018-10-18T17:20:52.060Z,37.97
2018-10-18T17:23:22.680Z,39.83
2018-10-18T17:25:52.995Z,38.83
2018-10-18T17:28:23.695Z,38.23
2018-10-18T17:30:54.256Z,39.40
2018-10-18T17:33:24.846Z,40.23
2018-10-18T17:35:55.378Z,38.27
2018-10-18T17:38:25.774Z,40.53
2018-10-18T17:40:56.022Z,38.80
2018-10-18T17:43:26.403Z,39.43
2018-10-18T17:45:56.805Z,40.30
2018-10-18T17:48:27.138Z,40.50
2018-10-18T17:50:57.503Z,39.07
2018-10-18T17:53:27.818Z,40.77
2018-10-18T17:55:58.026Z,39.00
2018-10-18T17:58:28.707Z,38.53
2018-10-18T18:00:59.289Z,37.60
2018-10-18T18:03:29.765Z,39.23
2018-10-18T18:06:00.300Z,40.70
2018-10-18T18:08:30.827Z,38.70
2018-10-18T18:11:01.146Z,39.17
2018-10-18T18:13:31.592Z,41.97
2018-10-18T18:16:02.111Z,39.90
2018-10-18T18:18:32.524Z,39.17
2018-10-18T18:21:03.114Z,39.80
2018-10-18T18:23:33.356Z,40.03
2018-10-18T18:26:03.778Z,41.30
2018-10-18T18:28:34.372Z,39.27
2018-10-18T18:31:04.719Z,39.60
2018-10-18T18:33:35.163Z,39.63
2018-10-18T18:36:05.692Z,41.23
2018-10-18T18:38:36.070Z,38.23
2018-10-18T18:41:06.479Z,40.77
2018-10-18T18:43:36.803Z,44.83
2018-10-18T18:46:06.851Z,44.77
2018-10-18T18:48:37.002Z,44.33
2018-10-18T18:51:07.694Z,44.43
2018-10-18T18:53:37.953Z,43.10
2018-10-18T18:56:08.143Z,40.90
2018-10-18T18:58:38.760Z,53.97
2018-10-18T19:01:09.223Z,59.93
2018-10-18T19:03:39.686Z,46.03
2018-10-18T19:06:10.129Z,43.40
2018-10-18T19:08:40.574Z,41.47
2018-10-18T19:11:10.968Z,40.00
2018-10-18T19:13:41.393Z,41.60
2018-10-18T19:16:11.780Z,41.33
2018-10-18T19:18:42.062Z,39.03
2018-10-18T19:21:12.499Z,39.77
2018-10-18T19:23:42.884Z,37.40
2018-10-18T19:26:13.445Z,40.80
2018-10-18T19:28:43.751Z,39.90
2018-10-18T19:31:14.063Z,40.17
2018-10-18T19:33:44.548Z,39.60
2018-10-18T19:36:14.851Z,42.80
2018-10-18T19:38:45.378Z,40.97
2018-10-18T19:41:15.779Z,38.33
2018-10-18T19:43:46.932Z,39.80
2018-10-18T19:46:17.418Z,39.40
2018-10-18T19:48:47.979Z,40.27
2018-10-18T19:51:18.318Z,42.13
2018-10-18T19:53:48.634Z,40.03
2018-10-18T19:56:19.135Z,40.83
2018-10-18T19:58:49.608Z,41.40
2018-10-18T20:01:20.145Z,44.97
2018-10-18T20:03:50.527Z,42.67
2018-10-18T20:06:21.139Z,44.30
2018-10-18T20:08:51.551Z,44.90
2018-10-18T20:11:21.547Z,46.13
2018-10-18T20:13:51.569Z,42.63
2018-10-18T20:16:21.611Z,40.40
2018-10-18T20:18:51.620Z,38.87
2018-10-18T20:21:21.566Z,42.37
2018-10-18T20:23:52.006Z,50.60
2018-10-18T20:26:22.569Z,44.43
2018-10-18T20:28:52.925Z,40.60
2018-10-18T20:31:23.410Z,43.37
2018-10-18T20:33:53.860Z,45.00
2018-10-18T20:36:24.211Z,37.37
2018-10-18T20:38:54.774Z,37.60
2018-10-18T20:41:25.087Z,36.73
2018-10-18T20:43:55.389Z,36.70
2018-10-18T20:46:25.853Z,36.47
2018-10-18T20:48:56.330Z,39.00
2018-10-18T20:51:26.694Z,42.97
2018-10-18T20:53:56.717Z,41.27
2018-10-18T20:56:26.665Z,39.47
2018-10-18T20:58:56.659Z,36.60
2018-10-18T21:01:26.644Z,36.27
2018-10-18T21:03:56.708Z,34.67
2018-10-18T21:06:27.309Z,37.13
2018-10-18T21:08:57.287Z,33.87
2018-10-18T21:11:27.243Z,36.80
2018-10-18T21:13:57.175Z,37.03
2018-10-18T21:16:27.233Z,33.60
2018-10-18T21:18:57.229Z,33.47
2018-10-18T21:21:27.222Z,33.87
2018-10-18T21:23:57.202Z,35.73
2018-10-18T21:26:27.214Z,36.67
2018-10-18T21:28:57.168Z,35.80
2018-10-18T21:31:27.121Z,36.37
2018-10-18T21:33:57.141Z,34.90
2018-10-18T21:36:27.175Z,38.57
2018-10-18T21:38:57.127Z,35.90
2018-10-18T21:41:27.160Z,35.97
2018-10-18T21:43:57.165Z,36.13
2018-10-18T21:46:27.118Z,36.13
2018-10-18T21:48:57.118Z,36.50
2018-10-18T21:51:27.011Z,32.70
2018-10-18T21:53:56.992Z,34.10
2018-10-18T21:56:26.936Z,35.20
2018-10-18T21:58:56.954Z,36.80
2018-10-18T22:01:26.873Z,37.90
2018-10-18T22:03:56.884Z,36.87
2018-10-18T22:06:26.862Z,35.80
2018-10-18T22:08:56.921Z,36.40
2018-10-18T22:11:26.817Z,38.30
2018-10-18T22:13:56.720Z,37.00
2018-10-18T22:16:26.667Z,36.70
2018-10-18T22:18:56.580Z,37.37
2018-10-18T22:21:26.525Z,36.00
2018-10-18T22:23:56.542Z,35.17
2018-10-18T22:26:26.535Z,35.67
2018-10-18T22:28:56.488Z,36.50
2018-10-18T22:31:26.542Z,37.67
2018-10-18T22:33:56.438Z,36.90
2018-10-18T22:36:26.705Z,34.57
2018-10-18T22:38:56.642Z,36.77
2018-10-18T22:41:26.625Z,35.50
2018-10-18T22:43:56.544Z,36.37
2018-10-18T22:46:26.502Z,38.50
2018-10-18T22:48:56.446Z,35.60
2018-10-18T22:51:26.832Z,38.17
2018-10-18T22:53:57.145Z,36.80
2018-10-18T22:56:27.358Z,37.00
2018-10-18T22:58:57.840Z,39.27
2018-10-18T23:01:28.227Z,38.90
2018-10-18T23:03:58.616Z,39.73
2018-10-18T23:06:29.085Z,39.47
2018-10-18T23:08:59.424Z,40.83
2018-10-18T23:11:29.935Z,41.47
2018-10-18T23:14:00.231Z,41.03
2018-10-18T23:16:30.877Z,42.87
2018-10-18T23:19:00.843Z,40.33
2018-10-18T23:21:30.791Z,40.63
2018-10-18T23:24:00.783Z,43.00
2018-10-18T23:26:31.074Z,41.00
2018-10-18T23:29:01.052Z,41.87
2018-10-18T23:31:30.970Z,39.57
2018-10-18T23:34:00.947Z,39.77
2018-10-18T23:36:30.868Z,37.50
2018-10-18T23:39:00.936Z,39.73
2018-10-18T23:41:30.826Z,39.03
2018-10-18T23:44:00.752Z,40.90
2018-10-18T23:46:30.698Z,38.47
2018-10-18T23:49:00.742Z,39.50
2018-10-18T23:51:30.742Z,42.90
2018-10-18T23:54:00.706Z,39.40
2018-10-18T23:56:30.666Z,42.40
2018-10-18T23:59:00.613Z,39.70
